Latest Weather Observations for Morawa Airport

IDW60801

Issued at 7:35 pm WST Saturday 22 November 2014 (issued every 30 minutes, with the page automatically refreshed every 10 minutes)

About weather observations | Map of weather stations | Latest weather observations for WA | Other Formats
Station Details ID: 008296 Name: MORAWA AIRPORT Lat: -29.20 Lon: 116.02 Height: 271.4 m
Data from the previous 72 hours. | See also: Recent months at Morawa Airport
Date/Time
WST
Temp
°C
App
Temp
°C
Dew
Point
Rel
Hum
%
Delta-T
°C
Wind Press
QNH
hPa
Press
MSL
hPa
Rain
since 9 am
mm
Dir
 
Spd
km/h
Gust
km/h
Spd
kts
Gust
kts
22/07:30pm 19.8 15.7 10.2 54 5.2 SW 22 33 12 18 1014.7 1013.5 0.0
22/07:00pm 20.6 16.2 10.4 52 5.6 SW 24 33 13 18 1014.4 1013.1 0.0
22/06:30pm 21.9 17.4 10.1 47 6.5 SW 24 37 13 20 1014.0 1012.7 0.0
22/06:00pm 23.5 18.7 8.8 39 8.0 SW 24 35 13 19 1013.5 1012.2 0.0
22/05:30pm 24.6 20.5 7.7 34 9.0 SW 19 32 10 17 1013.0 1011.8 0.0
22/05:00pm 24.9 19.4 7.5 33 9.3 WSW 26 35 14 19 1012.7 1011.5 0.0
22/04:30pm 25.4 21.0 6.6 30 9.9 W 19 26 10 14 1012.4 1011.2 0.0
22/04:00pm 26.1 22.1 6.7 29 10.3 SSW 17 30 9 16 1012.4 1011.2 0.0
22/03:30pm 25.2 22.0 4.9 27 10.4 SSW 11 22 6 12 1012.5 1011.3 0.0
22/03:00pm 26.1 22.3 5.7 27 10.6 WSW 15 24 8 13 1012.8 1011.6 0.0
22/02:30pm 26.5 22.1 6.5 28 10.6 SW 19 28 10 15 1013.2 1012.0 0.0
22/02:00pm 24.7 22.2 6.4 31 9.6 W 9 24 5 13 1013.6 1012.3 0.0
22/01:30pm 24.1 21.6 6.4 32 9.2 SSW 9 19 5 10 1013.8 1012.5 0.0
22/01:00pm 23.9 20.4 7.1 34 8.9 SSW 15 30 8 16 1014.0 1012.7 0.0
22/12:30pm 22.9 19.8 7.1 36 8.3 SSW 13 22 7 12 1014.4 1013.1 0.0
22/12:00pm 22.8 20.8 7.0 36 8.3 W 7 15 4 8 1014.6 1013.4 0.0
22/11:30am 22.5 20.4 6.7 36 8.2 SW 7 17 4 9 1014.9 1013.7 0.0
22/11:00am 21.8 19.3 8.3 42 7.2 S 11 22 6 12 1015.2 1014.0 0.0
22/10:30am 21.1 19.0 8.4 44 6.7 SW 9 20 5 11 1015.4 1014.2 0.0
22/10:00am 20.3 18.0 7.3 43 6.7 SW 9 17 5 9 1015.6 1014.4 0.0
22/09:30am 20.2 18.0 7.9 45 6.4 S 9 22 5 12 1015.6 1014.4 0.0
22/09:00am 20.0 17.4 7.7 45 6.4 S 11 17 6 9 1015.7 1014.5 0.0
22/08:30am 18.8 15.8 7.9 49 5.7 S 13 20 7 11 1015.7 1014.5 0.0
22/08:00am 18.4 15.9 8.4 52 5.2 S 11 17 6 9 1015.6 1014.4 0.0
22/07:30am 18.3 16.2 9.6 57 4.6 S 11 19 6 10 1015.4 1014.2 0.0
22/07:00am 17.2 14.8 9.9 62 3.9 SSW 13 17 7 9 1015.3 1014.1 0.0
22/06:30am 16.7 14.6 9.9 64 3.6 SSW 11 15 6 8 1015.0 1013.8 0.0
22/06:00am 16.4 14.9 10.5 68 3.2 S 9 13 5 7 1014.6 1013.4 0.0
22/05:30am 16.1 13.8 10.4 69 3.1 SSW 13 19 7 10 1014.4 1013.1 0.0
22/05:00am 16.1 13.8 10.6 70 3.0 SSW 13 20 7 11 1014.0 1012.7 0.0
22/04:30am 16.3 14.7 11.5 73 2.6 S 11 15 6 8 1013.8 1012.5 0.0
22/04:00am 16.3 14.3 11.5 73 2.6 SSW 13 19 7 10 1013.6 1012.3 0.0
22/03:30am 16.4 14.2 12.0 75 2.4 SSW 15 19 8 10 1013.5 1012.2 0.0
22/03:00am 16.4 14.5 12.9 80 2.0 S 15 19 8 10 1013.2 1012.0 0.0
22/02:30am 16.6 15.0 12.9 79 2.1 SSW 13 20 7 11 1013.5 1012.2 0.0
22/02:00am 16.8 15.7 13.1 79 2.1 SSW 11 17 6 9 1013.5 1012.2 0.0
22/01:30am 16.8 15.3 13.1 79 2.1 SW 13 17 7 9 1013.8 1012.5 0.0
22/01:00am 16.8 15.1 13.5 81 1.9 SW 15 22 8 12 1014.0 1012.7 0.0
22/12:30am 16.8 15.8 14.6 87 1.3 SW 13 20 7 11 1014.0 1012.7 0.0
22/12:00am 16.6 16.1 15.0 90 0.9 SW 11 15 6 8 1014.1 1012.8 0.0
 
Date/Time
WST
Temp
°C
App
Temp
°C
Dew
Point
Rel
Hum
%
Delta-T
°C
Wind Press
QNH
hPa
Press
MSL
hPa
Rain
since 9 am
mm
Dir
 
Spd
km/h
Gust
km/h
Spd
kts
Gust
kts
21/11:30pm 16.9 15.6 14.9 88 1.2 SSW 15 20 8 11 1014.2 1012.9 0.0
21/11:00pm 16.8 15.4 16.5 98 0.2 SSW 19 22 10 12 1014.2 1012.9 0.0
21/10:30pm 17.3 17.0 15.5 89 1.1 WSW 11 15 6 8 1014.3 1013.0 0.0
21/10:00pm 17.3 16.1 15.1 87 1.3 WSW 15 22 8 12 1014.5 1013.2 0.0
21/09:30pm 17.5 16.7 15.1 86 1.4 WSW 13 19 7 10 1014.6 1013.4 0.0
21/09:00pm 17.9 16.8 15.3 85 1.5 W 15 22 8 12 1014.4 1013.1 0.0
21/08:30pm 18.3 16.5 15.4 83 1.7 WSW 19 26 10 14 1014.3 1013.0 0.0
21/08:00pm 19.0 16.6 14.5 75 2.6 WSW 20 30 11 16 1014.0 1012.7 0.0
21/07:30pm 20.2 18.0 13.4 65 3.9 WSW 17 30 9 16 1013.7 1012.4 0.0
21/07:00pm 20.9 18.3 13.1 61 4.5 WSW 19 28 10 15 1013.5 1012.2 0.0
21/06:30pm 22.4 19.4 12.4 53 5.7 WSW 20 32 11 17 1012.9 1011.7 0.0
21/06:00pm 23.8 20.1 11.5 46 7.0 WSW 22 35 12 19 1012.4 1011.2 0.0
21/05:30pm 24.7 20.8 10.9 42 7.8 WSW 22 30 12 16 1012.1 1010.9 0.0
21/05:00pm 25.9 21.5 10.5 38 8.7 SW 24 32 13 17 1011.8 1010.6 0.0
21/04:30pm 26.8 23.1 10.1 35 9.4 W 20 32 11 17 1011.6 1010.4 0.0
21/04:00pm 26.4 21.9 10.1 36 9.2 W 24 33 13 18 1011.7 1010.5 0.0
21/03:30pm 27.1 23.5 9.9 34 9.7 W 19 28 10 15 1011.7 1010.5 0.0
21/03:00pm 27.4 23.9 10.2 34 9.8 WSW 19 32 10 17 1011.8 1010.6 0.0
21/02:30pm 27.9 24.3 9.7 32 10.3 W 19 32 10 17 1011.9 1010.7 0.0
21/02:00pm 27.7 24.0 10.0 33 10.0 W 20 32 11 17 1012.2 1011.0 0.0
21/01:30pm 26.6 23.0 9.9 35 9.4 WNW 19 26 10 14 1012.3 1011.1 0.0
21/01:00pm 26.7 23.8 9.5 34 9.6 W 15 26 8 14 1012.6 1011.4 0.0
21/12:30pm 25.9 22.6 9.7 36 9.0 W 17 30 9 16 1013.1 1011.9 0.0
21/12:00pm 26.0 22.9 10.2 37 8.9 W 17 28 9 15 1013.6 1012.3 0.0
21/11:30am 25.3 23.1 10.7 40 8.3 WSW 13 20 7 11 1014.0 1012.7 0.0
21/11:00am 23.9 22.0 10.6 43 7.5 W 11 22 6 12 1014.4 1013.1 0.0
21/10:30am 23.3 21.8 10.7 45 7.1 WSW 9 24 5 13 1014.7 1013.5 0.0
21/10:00am 21.9 20.1 10.7 49 6.2 W 11 19 6 10 1015.1 1013.9 0.0
21/09:30am 21.0 19.8 11.6 55 5.3 SW 9 22 5 12 1015.3 1014.1 0.0
21/09:00am 19.6 18.9 11.9 61 4.3 SW 7 11 4 6 1015.4 1014.2 0.0
21/08:30am 18.8 17.4 12.1 65 3.8 WSW 11 15 6 8 1015.5 1014.3 0.0
21/08:00am 18.3 17.6 12.1 67 3.5 W 7 17 4 9 1015.3 1014.1 0.0
21/07:30am 18.0 18.2 12.0 68 3.3 WSW 2 6 1 3 1015.0 1013.8 0.0
21/07:00am 16.8 17.3 12.7 77 2.3 WSW 2 6 1 3 1015.0 1013.8 0.0
21/06:30am 15.7 16.3 13.0 84 1.5 WSW 2 6 1 3 1014.6 1013.4 0.0
21/06:00am 14.2 14.7 12.9 92 0.7 WSW 2 4 1 2 1014.4 1013.1 0.0
21/05:30am 12.6 12.8 11.7 94 0.5 WSW 2 2 1 1 1014.2 1012.9 0.0
21/05:00am 12.4 12.2 11.8 96 0.3 WSW 4 4 2 2 1014.0 1012.7 0.0
21/04:30am 12.4 12.1 11.6 95 0.4 WSW 4 4 2 2 1013.8 1012.5 0.0
21/04:00am 12.9 12.9 12.4 97 0.3 WSW 4 6 2 3 1013.8 1012.5 0.0
21/03:30am 13.3 13.0 12.8 97 0.3 WSW 6 6 3 3 1013.7 1012.4 0.0
21/03:00am 13.5 13.2 12.6 94 0.5 WSW 6 7 3 4 1013.6 1012.3 0.0
21/02:30am 13.7 13.8 12.6 93 0.6 WSW 4 6 2 3 1013.6 1012.3 0.0
21/02:00am 14.2 14.3 12.8 91 0.8 WSW 4 6 2 3 1013.5 1012.2 0.0
21/01:30am 14.9 14.8 13.3 90 0.9 WSW 6 7 3 4 1013.7 1012.4 0.0
21/01:00am 15.0 14.8 13.0 88 1.1 SW 6 9 3 5 1013.8 1012.5 0.0
21/12:30am 15.3 14.5 13.0 86 1.3 SW 9 15 5 8 1013.9 1012.6 0.0
21/12:00am 15.7 14.2 13.0 84 1.5 SW 13 17 7 9 1014.3 1013.0 0.0
 
Date/Time
WST
Temp
°C
App
Temp
°C
Dew
Point
Rel
Hum
%
Delta-T
°C
Wind Press
QNH
hPa
Press
MSL
hPa
Rain
since 9 am
mm
Dir
 
Spd
km/h
Gust
km/h
Spd
kts
Gust
kts
20/11:30pm 16.1 15.0 13.0 82 1.7 SW 11 17 6 9 1014.7 1013.5 0.0
20/11:00pm 16.5 15.3 12.8 79 2.1 SW 11 15 6 8 1014.8 1013.6 0.0
20/10:30pm 16.8 15.2 12.7 77 2.3 SW 13 19 7 10 1015.0 1013.8 0.0
20/10:00pm 17.2 14.4 12.5 74 2.6 SW 19 26 10 14 1015.0 1013.8 0.0
20/09:30pm 17.8 15.8 11.6 67 3.4 SW 13 20 7 11 1015.1 1013.9 0.0
20/09:00pm 18.4 15.6 11.2 63 4.0 SW 17 28 9 15 1014.9 1013.7 0.0
20/08:30pm 18.8 15.6 11.1 61 4.2 SW 19 26 10 14 1014.6 1013.4 0.0
20/08:00pm 19.3 16.3 10.8 58 4.7 WSW 17 24 9 13 1014.4 1013.1 0.0
20/07:30pm 20.0 16.5 11.0 56 5.0 WSW 20 32 11 17 1014.1 1012.8 0.0
20/07:00pm 21.1 17.4 11.4 54 5.4 WSW 22 33 12 18 1014.0 1012.7 0.0
20/06:30pm 22.7 18.6 10.2 45 6.9 WSW 22 33 12 18 1013.7 1012.4 0.0
20/06:00pm 24.0 19.0 9.6 40 7.9 WSW 26 37 14 20 1013.5 1012.2 0.0
20/05:30pm 25.1 20.2 8.6 35 9.0 WSW 24 33 13 18 1013.1 1011.9 0.0
20/05:00pm 25.9 21.5 8.8 34 9.4 WSW 22 35 12 19 1012.8 1011.6 0.0
20/04:30pm 26.5 22.0 8.5 32 9.9 WSW 22 33 12 18 1012.7 1011.5 0.0
20/04:00pm 27.5 22.7 8.9 31 10.3 W 24 35 13 19 1012.5 1011.3 0.0
20/03:30pm 28.3 23.8 8.6 29 10.9 W 22 32 12 17 1012.4 1011.2 0.0
20/03:00pm 28.1 23.9 8.4 29 10.9 WSW 20 26 11 14 1012.5 1011.3 0.0
20/02:30pm 28.5 23.9 8.2 28 11.2 W 22 39 12 21 1012.6 1011.4 0.0
20/02:00pm 29.1 24.7 4.6 21 12.8 WSW 17 28 9 15 1013.0 1011.8 0.0
20/01:30pm 28.3 23.0 3.2 20 12.7 W 20 32 11 17 1013.3 1012.1 0.0
20/01:00pm 28.4 23.2 2.6 19 12.9 W 19 30 10 16 1013.6 1012.3 0.0
20/12:30pm 28.4 22.7 2.6 19 12.9 W 22 33 12 18 1014.1 1012.8 0.0
20/12:00pm 27.9 23.0 4.2 22 12.2 W 19 33 10 18 1014.4 1013.1 0.0
20/11:30am 27.2 23.7 5.5 25 11.3 W 13 30 7 16 1014.6 1013.4 0.0
20/11:00am 27.2 23.1 6.0 26 11.2 WNW 17 28 9 15 1015.0 1013.8 0.0
20/10:30am 26.0 23.1 6.6 29 10.3 NW 11 20 6 11 1015.4 1014.2 0.0
20/10:00am 24.9 22.2 7.5 33 9.3 NNW 11 22 6 12 1015.7 1014.5 0.0
20/09:30am 24.5 21.9 7.6 34 9.0 WNW 11 17 6 9 1016.1 1014.9 0.0
20/09:00am 23.5 21.7 7.2 35 8.6 WNW 6 13 3 7 1016.1 1014.9 0.0
20/08:30am 22.2 20.2 6.4 36 8.1 NNE 6 15 3 8 1016.2 1015.0 0.0
20/08:00am 21.2 18.8 7.1 40 7.3 NNE 9 17 5 9 1016.2 1015.0 0.0
20/07:30am 20.1 17.5 7.8 45 6.4 NE 11 17 6 9 1016.0 1014.8 0.0
20/07:00am 18.3 16.7 8.8 54 5.0 NNE 7 13 4 7 1015.9 1014.7 0.0
20/06:30am 16.4 15.1 9.3 63 3.7 N 6 9 3 5 1015.7 1014.5 0.0
20/06:00am 14.6 13.9 10.0 74 2.4 SW 4 7 2 4 1015.4 1014.2 0.0
20/05:30am 12.9 11.5 9.5 80 1.8 SW 7 7 4 4 1015.3 1014.1 0.0
20/05:00am 12.4 11.2 9.4 82 1.5 SW 6 6 3 3 1015.0 1013.8 0.0
20/04:30am 12.0 11.3 8.7 80 1.7 SW 2 4 1 2 1015.0 1013.8 0.0
20/04:00am 12.6 12.0 8.9 78 1.9 SW 2 4 1 2 1015.0 1013.8 0.0
20/03:30am 13.2 13.0 8.9 75 2.2 CALM 0 0 0 0 1015.0 1013.8 0.0
20/03:00am 13.6 13.0 9.1 74 2.3 S 2 4 1 2 1015.1 1013.9 0.0
20/02:30am 14.5 13.4 9.9 74 2.4 SSW 6 6 3 3 1015.2 1014.0 0.0
20/02:00am 14.8 13.7 10.0 73 2.5 SSW 6 6 3 3 1015.2 1014.0 0.0
20/01:30am 14.9 13.7 9.7 71 2.7 S 6 6 3 3 1015.4 1014.2 0.0
20/01:00am 15.6 14.3 9.9 69 3.0 S 7 9 4 5 1015.8 1014.6 0.0
20/12:30am 16.0 14.3 9.9 67 3.2 S 9 13 5 7 1016.2 1015.0 0.0
20/12:00am 16.5 14.9 10.1 66 3.4 S 9 13 5 7 1016.5 1015.3 0.0
 
Date/Time
WST
Temp
°C
App
Temp
°C
Dew
Point
Rel
Hum
%
Delta-T
°C
Wind Press
QNH
hPa
Press
MSL
hPa
Rain
since 9 am
mm
Dir
 
Spd
km/h
Gust
km/h
Spd
kts
Gust
kts
19/11:30pm 17.0 15.0 10.1 64 3.7 S 11 15 6 8 1016.7 1015.5 0.0
19/11:00pm 17.3 15.3 10.2 63 3.8 SSW 11 17 6 9 1017.0 1015.8 0.0
19/10:30pm 17.8 15.1 10.2 61 4.1 SSW 15 20 8 11 1017.0 1015.8 0.0
19/10:00pm 18.2 15.5 10.3 60 4.3 SSW 15 20 8 11 1017.1 1015.9 0.0
19/09:30pm 18.4 15.7 10.5 60 4.3 SW 15 20 8 11 1017.2 1016.0 0.0
19/09:00pm 18.9 15.8 10.2 57 4.7 SW 17 28 9 15 1017.0 1015.8 0.0
19/08:30pm 19.5 15.6 9.4 52 5.4 SW 20 30 11 16 1016.8 1015.6 0.0
19/08:00pm 20.2 16.6 9.7 51 5.7 SW 19 30 10 16 1016.6 1015.4 0.0

Other Formats:

Comma delimited format used in spreadsheet applications
http://www.bom.gov.au/fwo/IDW60801/IDW60801.94417.axf

JavaScript Object Notation format (JSON) in row-major order
http://www.bom.gov.au/fwo/IDW60801/IDW60801.94417.json